Time;durP1;ratioP1;P1;durP2;ratioP2;P2;SDS_P1;SDS_P2;PMS_P1;PMS_P2;Temp;Humidity;BMP_temperature;BMP_pressure;BME280_temperature;BME280_humidity;BME280_pressure;Samples;Min_cycle;Max_cycle;Signal;HPM_P1;HPM_P2
2024/01/29 00:00:03;;;;;;;34.60;16.20;;;;;;;-0.48;89.04;102416.35;105590;1257;82077;-56
2024/01/29 00:02:37;;;;;;;34.60;14.50;;;;;;;-0.46;89.37;102415.56;105585;1257;71985;-57
2024/01/29 00:05:06;;;;;;;30.70;14.50;;;;;;;-0.46;89.68;102414.36;105536;1257;69138;-56
2024/01/29 00:07:34;;;;;;;33.30;14.60;;;;;;;-0.44;90.00;102410.98;105521;1257;69205;-56
2024/01/29 00:10:03;;;;;;;30.00;14.20;;;;;;;-0.43;90.05;102411.73;105560;1254;71959;-57
2024/01/29 00:12:32;;;;;;;39.70;17.40;;;;;;;-0.41;90.30;102409.08;105537;1254;81238;-55
2024/01/29 00:15:01;;;;;;;42.00;17.50;;;;;;;-0.39;90.31;102406.56;105526;1254;72148;-56
2024/01/29 00:17:30;;;;;;;37.10;17.00;;;;;;;-0.38;90.49;102409.02;105543;1254;69263;-55
2024/01/29 00:19:58;;;;;;;40.00;18.50;;;;;;;-0.37;90.55;102404.77;105527;1254;69198;-56
2024/01/29 00:22:26;;;;;;;40.00;18.70;;;;;;;-0.35;90.58;102407.41;105553;1254;74035;-55
2024/01/29 00:24:54;;;;;;;38.60;17.40;;;;;;;-0.35;90.72;102406.39;105486;1257;82190;-56
2024/01/29 00:27:24;;;;;;;38.30;17.00;;;;;;;-0.31;90.85;102410.65;105554;1258;70514;-56
2024/01/29 00:29:52;;;;;;;42.30;17.80;;;;;;;-0.30;90.95;102407.78;105496;1253;70433;-56
2024/01/29 00:32:20;;;;;;;39.60;16.80;;;;;;;-0.27;90.93;102410.33;105485;1254;69183;-56
2024/01/29 00:34:51;;;;;;;39.00;17.00;;;;;;;-0.25;90.99;102408.17;105547;1257;72188;-56
2024/01/29 00:37:22;;;;;;;38.20;16.20;;;;;;;-0.25;90.84;102404.20;105548;1255;82724;-56
2024/01/29 00:39:50;;;;;;;;;;;;;;;-0.28;90.62;102405.45;105491;1254;70857;-55
2024/01/29 00:42:19;;;;;;;34.20;15.40;;;;;;;-0.31;90.62;102407.90;105521;1257;69143;-57
2024/01/29 00:44:49;;;;;;;36.40;16.00;;;;;;;-0.33;90.72;102408.17;105528;1257;69188;-56
2024/01/29 00:47:20;;;;;;;34.40;15.80;;;;;;;-0.34;90.96;102405.90;105498;1257;70949;-56
2024/01/29 00:49:48;;;;;;;39.70;18.30;;;;;;;-0.32;90.93;102405.98;105528;1257;81389;-56
2024/01/29 00:52:16;;;;;;;33.80;18.00;;;;;;;-0.32;91.07;102401.02;105480;1254;72317;-54
2024/01/29 00:54:45;;;;;;;34.90;17.70;;;;;;;-0.33;91.03;102401.84;105547;1256;69096;-56
2024/01/29 00:57:15;;;;;;;40.70;17.80;;;;;;;-0.33;91.21;102398.41;105532;1257;69160;-56
2024/01/29 00:59:44;;;;;;;42.80;16.80;;;;;;;-0.30;91.30;102402.83;105525;1255;74235;-56
2024/01/29 01:02:12;;;;;;;36.00;16.50;;;;;;;-0.31;91.22;102398.13;105483;1256;81663;-56
2024/01/29 01:04:40;;;;;;;30.50;16.80;;;;;;;-0.31;91.25;102400.35;105524;1257;71936;-55
2024/01/29 01:07:09;;;;;;;36.50;16.80;;;;;;;-0.32;91.12;102398.95;105462;1257;69153;-56
2024/01/29 01:09:37;;;;;;;33.10;16.50;;;;;;;-0.31;91.33;102394.87;105504;1257;69128;-56
2024/01/29 01:12:06;;;;;;;39.90;17.10;;;;;;;-0.28;91.41;102391.39;105498;1257;72078;-55
2024/01/29 01:14:34;;;;;;;36.20;16.20;;;;;;;-0.27;91.42;102386.63;105544;1256;81313;-55
2024/01/29 01:17:02;;;;;;;33.10;16.80;;;;;;;-0.27;91.37;102384.22;105384;1260;71677;-56
2024/01/29 01:19:30;;;;;;;31.30;15.50;;;;;;;-0.27;91.35;102382.83;105531;1256;69148;-56
2024/01/29 01:21:58;;;;;;;32.10;16.10;;;;;;;-0.28;91.19;102380.57;105553;1256;69151;-56
2024/01/29 01:24:27;;;;;;;32.90;15.00;;;;;;;-0.29;91.28;102379.85;105563;1254;72052;-56
2024/01/29 01:26:56;;;;;;;32.50;15.80;;;;;;;-0.31;91.21;102378.38;105504;1254;80821;-56
2024/01/29 01:29:24;;;;;;;36.30;16.10;;;;;;;-0.31;91.34;102377.33;105570;1254;72103;-56
2024/01/29 01:31:52;;;;;;;33.20;15.60;;;;;;;-0.29;91.48;102376.20;105528;1253;69150;-56
2024/01/29 01:34:20;;;;;;;35.80;15.30;;;;;;;-0.29;91.39;102377.92;105509;1256;69179;-56
2024/01/29 01:36:49;;;;;;;31.50;16.00;;;;;;;-0.31;91.31;102376.99;105617;1254;73347;-58
2024/01/29 01:39:17;;;;;;;36.50;16.30;;;;;;;-0.31;91.40;102373.21;105565;1256;81678;-57
2024/01/29 01:41:52;;;;;;;33.60;15.80;;;;;;;-0.31;91.36;102373.23;105489;1254;71555;-56
2024/01/29 01:44:20;;;;;;;33.00;16.60;;;;;;;-0.31;91.50;102371.84;105477;1256;69201;-56
2024/01/29 01:46:48;;;;;;;32.70;15.10;;;;;;;-0.30;91.52;102367.25;105463;1257;69182;-56
2024/01/29 01:49:18;;;;;;;31.60;16.00;;;;;;;-0.31;91.37;102371.00;105550;1254;72590;-56
2024/01/29 01:51:47;;;;;;;36.30;16.10;;;;;;;-0.33;91.42;102366.95;105439;1259;81475;-57
2024/01/29 01:54:15;;;;;;;30.80;15.40;;;;;;;-0.35;91.38;102365.17;105554;1253;71630;-56
2024/01/29 01:56:44;;;;;;;35.60;16.50;;;;;;;-0.36;91.53;102364.43;105561;1254;69093;-55
2024/01/29 01:59:13;;;;;;;37.20;16.00;;;;;;;-0.36;91.53;102363.08;105496;1259;69178;-56
2024/01/29 02:01:41;;;;;;;29.50;15.50;;;;;;;-0.35;91.84;102361.91;105519;1253;72367;-56
2024/01/29 02:04:09;;;;;;;30.90;15.00;;;;;;;-0.33;91.83;102356.14;105582;1254;81303;-56
2024/01/29 02:06:38;;;;;;;31.30;15.20;;;;;;;-0.33;91.85;102357.52;105471;1257;74052;-56
2024/01/29 02:09:06;;;;;;;33.30;15.10;;;;;;;-0.32;91.78;102354.63;105551;1253;69202;-56
2024/01/29 02:11:34;;;;;;;32.00;15.50;;;;;;;-0.32;91.90;102355.84;105536;1256;69327;-56
2024/01/29 02:14:02;;;;;;;35.70;15.80;;;;;;;-0.30;91.88;102357.29;105489;1252;72114;-56
2024/01/29 02:16:31;;;;;;;27.00;14.40;;;;;;;-0.30;91.84;102359.88;105504;1257;81371;-55
2024/01/29 02:18:59;;;;;;;34.80;16.20;;;;;;;-0.28;91.95;102360.30;105530;1255;71853;-56
2024/01/29 02:21:27;;;;;;;28.70;14.40;;;;;;;-0.26;91.99;102354.69;105598;1256;69163;-55
2024/01/29 02:23:56;;;;;;;32.70;15.60;;;;;;;-0.23;92.14;102353.25;105513;1254;69182;-56
2024/01/29 02:26:24;;;;;;;31.70;16.10;;;;;;;-0.20;92.23;102355.77;105536;1254;72398;-56
2024/01/29 02:28:52;;;;;;;29.60;15.30;;;;;;;-0.18;92.20;102356.19;105505;1256;81913;-56
2024/01/29 02:31:20;;;;;;;34.00;16.50;;;;;;;-0.16;92.26;102354.71;105512;1254;72309;-57
2024/01/29 02:33:48;;;;;;;37.30;16.50;;;;;;;-0.14;92.25;102346.23;105474;1254;69205;-55
2024/01/29 02:36:16;;;;;;;32.80;16.70;;;;;;;-0.12;92.23;102339.56;105527;1257;69186;-56
2024/01/29 02:38:45;;;;;;;34.10;16.00;;;;;;;-0.12;92.27;102340.10;105534;1256;72562;-57
2024/01/29 02:41:13;;;;;;;33.80;16.20;;;;;;;-0.10;92.18;102339.65;105486;1256;81604;-57
2024/01/29 02:43:42;;;;;;;35.20;15.70;;;;;;;-0.10;92.13;102342.08;105474;1254;70734;-55
2024/01/29 02:46:11;;;;;;;39.10;17.50;;;;;;;-0.10;92.03;102336.73;105530;1256;69150;-56
2024/01/29 02:48:39;;;;;;;30.10;16.30;;;;;;;-0.11;92.10;102337.58;105489;1254;69182;-56
2024/01/29 02:51:07;;;;;;;35.70;15.90;;;;;;;-0.09;92.20;102336.09;105515;1254;73696;-56
2024/01/29 02:53:36;;;;;;;33.40;17.10;;;;;;;-0.09;92.17;102331.96;105422;1259;82340;-56
2024/01/29 02:56:04;;;;;;;36.80;18.00;;;;;;;-0.09;92.17;102328.87;105497;1254;71791;-57
2024/01/29 02:58:32;;;;;;;39.30;16.50;;;;;;;-0.08;92.17;102326.33;105542;1253;69137;-56
2024/01/29 03:01:00;;;;;;;35.00;15.70;;;;;;;-0.10;92.07;102323.52;105523;1256;69175;-57
2024/01/29 03:03:29;;;;;;;32.70;17.20;;;;;;;-0.11;92.05;102320.70;105533;1254;72257;-57
2024/01/29 03:05:58;;;;;;;33.40;16.60;;;;;;;-0.14;92.01;102316.33;105623;1254;81817;-57
2024/01/29 03:08:26;;;;;;;36.60;16.10;;;;;;;-0.15;91.96;102320.23;105601;1254;73304;-57
2024/01/29 03:10:54;;;;;;;32.90;16.00;;;;;;;-0.17;92.05;102317.58;105539;1254;69182;-57
2024/01/29 03:13:23;;;;;;;31.00;16.60;;;;;;;-0.19;91.97;102316.65;105680;1256;69119;-57
2024/01/29 03:15:51;;;;;;;37.00;17.70;;;;;;;-0.21;91.97;102313.99;105565;1256;71813;-56
2024/01/29 03:18:19;;;;;;;33.90;17.40;;;;;;;-0.23;92.00;102314.44;105477;1256;82103;-55
2024/01/29 03:20:48;;;;;;;35.80;16.90;;;;;;;-0.25;92.09;102312.66;105520;1254;71870;-55
2024/01/29 03:23:16;;;;;;;37.20;17.00;;;;;;;-0.26;92.11;102305.22;105519;1254;69169;-55
2024/01/29 03:25:44;;;;;;;33.40;16.60;;;;;;;-0.29;92.00;102297.36;105533;1257;69198;-55
2024/01/29 03:28:13;;;;;;;35.60;16.50;;;;;;;-0.31;92.20;102294.88;105531;1254;72020;-53
2024/01/29 03:30:41;;;;;;;33.60;17.40;;;;;;;-0.32;92.21;102293.30;105574;1254;80219;-55
2024/01/29 03:33:09;;;;;;;35.50;18.20;;;;;;;-0.35;92.05;102290.98;105593;1254;71844;-55
2024/01/29 03:35:38;;;;;;;32.70;16.90;;;;;;;-0.39;92.04;102288.90;105584;1254;69464;-55
2024/01/29 03:38:06;;;;;;;36.90;18.20;;;;;;;-0.43;92.14;102285.67;105527;1256;69153;-54
2024/01/29 03:40:35;;;;;;;32.20;16.80;;;;;;;-0.44;92.16;102281.17;105592;1254;73381;-55
2024/01/29 03:43:03;;;;;;;34.00;17.10;;;;;;;-0.48;92.23;102276.23;105478;1255;82007;-55
2024/01/29 03:45:31;;;;;;;38.30;17.80;;;;;;;-0.49;92.19;102274.96;105562;1254;71826;-55
2024/01/29 03:48:00;;;;;;;33.60;17.40;;;;;;;-0.53;92.25;102266.07;105495;1254;69192;-54
2024/01/29 03:50:28;;;;;;;32.20;17.10;;;;;;;-0.54;92.34;102267.73;105524;1256;69611;-55
2024/01/29 03:52:56;;;;;;;40.50;17.50;;;;;;;-0.54;92.35;102267.04;105522;1254;72677;-54
2024/01/29 03:55:25;;;;;;;35.00;17.90;;;;;;;-0.55;92.53;102266.99;105534;1256;81513;-55
2024/01/29 03:57:53;;;;;;;31.60;16.90;;;;;;;-0.57;92.47;102266.93;105505;1254;72018;-52
2024/01/29 04:00:23;;;;;;;35.00;16.60;;;;;;;-0.60;92.37;102261.34;105558;1253;69276;-55
2024/01/29 04:02:52;;;;;;;35.30;17.60;;;;;;;-0.60;92.57;102257.20;105550;1256;69188;-56
2024/01/29 04:05:20;;;;;;;32.50;16.00;;;;;;;-0.62;92.45;102256.26;105542;1256;74159;-56
2024/01/29 04:07:49;;;;;;;33.10;16.40;;;;;;;-0.64;92.38;102254.80;105528;1256;82738;-55
2024/01/29 04:10:17;;;;;;;33.40;17.90;;;;;;;-0.66;92.40;102251.66;105497;1254;71521;-56
2024/01/29 04:12:45;;;;;;;40.00;17.10;;;;;;;-0.66;92.50;102251.13;105491;1254;69558;-56
2024/01/29 04:15:14;;;;;;;32.40;17.00;;;;;;;-0.68;92.59;102246.10;105534;1256;69135;-54
2024/01/29 04:17:42;;;;;;;32.00;16.50;;;;;;;-0.68;92.52;102248.83;105528;1254;71118;-55
2024/01/29 04:20:11;;;;;;;34.30;16.40;;;;;;;-0.71;92.56;102250.45;105500;1256;81864;-56
2024/01/29 04:22:39;;;;;;;34.60;17.20;;;;;;;-0.72;92.47;102253.49;105501;1254;71869;-56
2024/01/29 04:25:08;;;;;;;30.70;16.40;;;;;;;-0.71;92.69;102252.13;105537;1253;69077;-56
2024/01/29 04:27:36;;;;;;;34.70;16.60;;;;;;;-0.71;92.78;102246.66;105566;1256;69157;-55
2024/01/29 04:30:05;;;;;;;33.20;16.60;;;;;;;-0.72;92.70;102250.20;105544;1254;73033;-56
2024/01/29 04:32:33;;;;;;;31.70;16.70;;;;;;;-0.72;92.88;102249.21;105576;1256;83521;-56
2024/01/29 04:35:01;;;;;;;33.50;16.90;;;;;;;-0.73;92.75;102251.91;105448;1254;71701;-56
2024/01/29 04:37:32;;;;;;;;;;;;;;;-0.74;92.67;102251.88;105546;1253;70754;-56
2024/01/29 04:40:00;;;;;;;32.20;16.00;;;;;;;-0.76;92.63;102251.92;105515;1256;69219;-56
2024/01/29 04:42:29;;;;;;;32.00;17.70;;;;;;;-0.79;92.66;102248.73;105635;1256;73086;-56
2024/01/29 04:44:57;;;;;;;35.30;16.80;;;;;;;-0.81;92.59;102245.38;105368;1256;81890;-59
2024/01/29 04:47:26;;;;;;;32.20;16.40;;;;;;;-0.84;92.72;102247.52;105606;1254;73592;-56
2024/01/29 04:49:54;;;;;;;33.70;16.30;;;;;;;-0.87;92.56;102250.13;105610;1255;69176;-59
2024/01/29 04:52:22;;;;;;;30.10;15.30;;;;;;;-0.92;92.37;102257.66;105526;1254;69269;-58
2024/01/29 04:54:50;;;;;;;30.60;15.90;;;;;;;-1.01;91.91;102257.98;105539;1254;72088;-58
2024/01/29 04:57:20;;;;;;;27.50;14.70;;;;;;;-1.10;91.64;102262.44;105493;1256;81620;-58
2024/01/29 04:59:48;;;;;;;33.90;15.70;;;;;;;-1.18;91.52;102266.41;105581;1254;71738;-57
2024/01/29 05:02:17;;;;;;;28.00;14.50;;;;;;;-1.24;91.54;102268.88;105551;1254;69486;-58
2024/01/29 05:04:45;;;;;;;27.60;13.50;;;;;;;-1.29;91.89;102268.02;105520;1254;69631;-57
2024/01/29 05:07:13;;;;;;;28.40;14.30;;;;;;;-1.35;91.70;102263.31;105508;1254;72020;-57
2024/01/29 05:09:41;;;;;;;33.50;14.70;;;;;;;-1.40;91.59;102264.98;105481;1254;81492;-58
2024/01/29 05:12:10;;;;;;;28.60;14.90;;;;;;;-1.49;91.27;102265.30;105506;1254;71948;-57
2024/01/29 05:14:39;;;;;;;25.60;13.70;;;;;;;-1.55;91.34;102265.91;105498;1253;69138;-56
2024/01/29 05:17:09;;;;;;;27.50;13.70;;;;;;;-1.64;91.04;102262.95;105444;1259;69205;-57
2024/01/29 05:19:40;;;;;;;32.00;14.40;;;;;;;-1.72;91.02;102263.09;105549;1256;70637;-56
2024/01/29 05:22:08;;;;;;;28.80;14.40;;;;;;;-1.78;91.18;102263.03;105525;1256;82105;-56
2024/01/29 05:24:37;;;;;;;29.10;14.30;;;;;;;-1.84;91.11;102262.29;105565;1254;71384;-56
2024/01/29 05:27:05;;;;;;;26.50;14.00;;;;;;;-1.89;91.12;102261.02;105556;1256;69173;-55
2024/01/29 05:29:34;;;;;;;29.60;14.80;;;;;;;-1.94;91.08;102264.21;105599;1254;69893;-53
2024/01/29 05:32:02;;;;;;;32.20;13.70;;;;;;;-2.00;90.94;102264.11;105511;1254;72130;-54
2024/01/29 05:34:30;;;;;;;28.90;13.30;;;;;;;-2.05;91.12;102261.86;105516;1256;81588;-54
2024/01/29 05:36:58;;;;;;;29.00;14.30;;;;;;;-2.10;91.01;102263.66;105494;1253;73065;-56
2024/01/29 05:39:27;;;;;;;32.60;14.90;;;;;;;-2.16;90.92;102263.73;105610;1253;69132;-53
2024/01/29 05:41:56;;;;;;;28.40;13.60;;;;;;;-2.19;91.27;102259.66;105561;1254;69115;-54
2024/01/29 05:44:24;;;;;;;28.40;14.50;;;;;;;-2.21;91.29;102259.75;105521;1254;71041;-55
2024/01/29 05:46:52;;;;;;;27.70;13.20;;;;;;;-2.26;91.31;102261.61;105596;1254;81373;-54
2024/01/29 05:49:22;;;;;;;26.90;13.80;;;;;;;-2.29;91.32;102260.77;105434;1253;72152;-56
2024/01/29 05:51:51;;;;;;;30.10;14.50;;;;;;;-2.32;91.63;102257.24;105489;1256;69145;-55
2024/01/29 05:54:19;;;;;;;27.20;13.90;;;;;;;-2.32;91.55;102254.98;105506;1256;69241;-54
2024/01/29 05:56:47;;;;;;;26.90;12.90;;;;;;;-2.36;91.51;102255.35;105508;1254;72019;-54
2024/01/29 05:59:18;;;;;;;28.90;12.90;;;;;;;-2.36;91.78;102256.34;105524;1254;82696;-56
2024/01/29 06:01:46;;;;;;;25.50;12.50;;;;;;;-2.38;91.73;102251.98;105407;1253;72150;-56
2024/01/29 06:04:15;;;;;;;23.50;12.50;;;;;;;-2.40;92.00;102253.27;105457;1257;69126;-55
2024/01/29 06:06:44;;;;;;;30.00;12.90;;;;;;;-2.39;92.38;102251.77;105518;1254;69216;-54
2024/01/29 06:09:13;;;;;;;25.90;13.60;;;;;;;-2.35;92.78;102246.80;105514;1254;73171;-54
2024/01/29 06:11:41;;;;;;;27.00;12.60;;;;;;;-2.31;92.98;102249.38;105440;1257;82005;-54
2024/01/29 06:14:09;;;;;;;27.90;14.10;;;;;;;-2.31;92.93;102244.95;105372;1253;72087;-56
2024/01/29 06:16:37;;;;;;;27.30;13.90;;;;;;;-2.30;92.93;102245.50;105388;1253;69107;-55
2024/01/29 06:19:05;;;;;;;30.00;14.40;;;;;;;-2.27;93.38;102248.37;105472;1253;69189;-56
2024/01/29 06:21:34;;;;;;;27.50;12.90;;;;;;;-2.25;93.30;102249.31;105577;1254;73467;-57
2024/01/29 06:24:03;;;;;;;25.90;13.40;;;;;;;-2.25;93.17;102250.69;105547;1256;81973;-56
2024/01/29 06:26:31;;;;;;;28.20;13.30;;;;;;;-2.26;93.40;102250.13;105530;1253;72195;-58
2024/01/29 06:28:59;;;;;;;25.90;12.50;;;;;;;-2.25;93.45;102251.70;105482;1253;69157;-56
2024/01/29 06:31:28;;;;;;;31.80;13.40;;;;;;;-2.24;93.73;102252.45;105515;1255;69155;-57
2024/01/29 06:33:56;;;;;;;34.90;16.70;;;;;;;-2.20;93.92;102255.51;105543;1256;72243;-54
2024/01/29 06:36:25;;;;;;;73.30;37.00;;;;;;;-2.17;93.95;102258.91;105514;1253;80900;-55
2024/01/29 06:38:54;;;;;;;86.20;41.30;;;;;;;-2.12;94.25;102254.69;105524;1255;72574;-58
2024/01/29 06:41:23;;;;;;;221.50;79.60;;;;;;;-2.04;94.43;102260.34;105524;1253;69182;-54
2024/01/29 06:43:52;;;;;;;401.70;155.90;;;;;;;-1.98;94.55;102258.20;105512;1256;69271;-56
2024/01/29 06:46:21;;;;;;;402.10;158.50;;;;;;;-1.93;94.55;102255.69;105587;1253;72372;-54
2024/01/29 06:48:49;;;;;;;388.70;144.60;;;;;;;-1.88;94.48;102257.27;105557;1253;80250;-56
2024/01/29 06:51:17;;;;;;;313.70;114.30;;;;;;;-1.84;94.51;102259.70;105464;1253;70815;-55
2024/01/29 06:53:47;;;;;;;200.00;75.50;;;;;;;-1.83;94.08;102263.33;105687;1253;69072;-54
2024/01/29 06:56:15;;;;;;;97.10;38.30;;;;;;;-1.83;94.04;102266.41;105606;1254;69214;-57
2024/01/29 06:58:43;;;;;;;40.30;19.60;;;;;;;-1.80;94.09;102266.55;105432;1257;71432;-55
2024/01/29 07:01:11;;;;;;;37.10;17.10;;;;;;;-1.78;94.12;102270.55;105647;1257;81653;-55
2024/01/29 07:03:40;;;;;;;35.60;15.50;;;;;;;-1.77;94.24;102275.75;105419;1253;72011;-56
2024/01/29 07:06:08;;;;;;;32.20;14.20;;;;;;;-1.76;94.08;102281.60;105730;1257;69089;-54
2024/01/29 07:08:36;;;;;;;37.70;15.40;;;;;;;-1.79;93.81;102282.20;105488;1253;69197;-52
2024/01/29 07:11:05;;;;;;;33.20;15.10;;;;;;;-1.82;93.69;102279.66;105442;1253;73943;-50
2024/01/29 07:13:33;;;;;;;34.70;15.80;;;;;;;-1.85;93.36;102278.83;105587;1256;81699;-50
2024/01/29 07:16:01;;;;;;;30.20;13.80;;;;;;;-1.88;93.48;102279.40;105487;1257;71558;-51
2024/01/29 07:18:30;;;;;;;41.40;16.70;;;;;;;-1.89;93.36;102275.92;105564;1257;69849;-50
2024/01/29 07:20:58;;;;;;;33.90;15.90;;;;;;;-1.92;93.23;102276.30;105486;1253;69456;-51
2024/01/29 07:23:26;;;;;;;36.70;17.30;;;;;;;-1.94;93.13;102276.05;105519;1253;74223;-53
2024/01/29 07:25:56;;;;;;;36.50;16.80;;;;;;;-1.92;93.57;102274.40;105665;1257;81590;-54
2024/01/29 07:28:24;;;;;;;29.40;14.80;;;;;;;-1.88;93.84;102270.46;105678;1256;71148;-51
2024/01/29 07:30:53;;;;;;;42.50;19.80;;;;;;;-1.87;93.92;102277.23;105567;1257;69106;-55
2024/01/29 07:33:21;;;;;;;47.20;21.30;;;;;;;-1.78;94.50;102278.09;105513;1256;69215;-52
2024/01/29 07:35:49;;;;;;;42.10;19.00;;;;;;;-1.66;95.18;102281.23;105575;1252;72646;-49
2024/01/29 07:38:18;;;;;;;45.10;20.80;;;;;;;-1.53;95.51;102281.94;105509;1253;81045;-50
2024/01/29 07:40:46;;;;;;;42.70;20.40;;;;;;;-1.42;95.54;102279.46;105434;1257;72297;-54
2024/01/29 07:43:14;;;;;;;38.50;19.80;;;;;;;-1.32;95.59;102276.46;105462;1253;70020;-52
2024/01/29 07:45:44;;;;;;;45.60;21.20;;;;;;;-1.24;95.58;102278.88;105461;1257;69836;-53
2024/01/29 07:48:12;;;;;;;51.70;25.50;;;;;;;-1.15;95.50;102274.60;105557;1253;72318;-50
2024/01/29 07:50:40;;;;;;;41.70;22.00;;;;;;;-1.06;95.56;102274.45;105453;1255;81620;-55
2024/01/29 07:53:08;;;;;;;39.60;21.30;;;;;;;-0.97;95.60;102269.66;105446;1257;72995;-55
2024/01/29 07:55:37;;;;;;;48.60;23.90;;;;;;;-0.88;95.66;102267.61;105480;1253;69083;-51
2024/01/29 07:58:05;;;;;;;52.30;23.70;;;;;;;-0.80;95.57;102266.55;105536;1257;69092;-51
2024/01/29 08:00:33;;;;;;;38.40;19.80;;;;;;;-0.72;95.50;102266.67;105585;1253;73235;-54
2024/01/29 08:03:02;;;;;;;39.90;20.40;;;;;;;-0.66;95.34;102260.90;105757;1253;82916;-52
2024/01/29 08:05:30;;;;;;;38.40;20.10;;;;;;;-0.60;95.40;102257.53;105757;1254;71694;-53
2024/01/29 08:07:59;;;;;;;46.10;21.20;;;;;;;-0.54;95.29;102251.77;105602;1254;69077;-52
2024/01/29 08:10:27;;;;;;;31.70;17.90;;;;;;;-0.46;95.30;102252.41;105455;1257;69120;-55
2024/01/29 08:12:55;;;;;;;61.20;30.10;;;;;;;-0.39;95.25;102249.41;105548;1257;73177;-54
2024/01/29 08:15:24;;;;;;;49.70;26.20;;;;;;;-0.33;95.19;102253.41;105509;1257;82965;-54
2024/01/29 08:17:52;;;;;;;41.50;22.40;;;;;;;-0.26;95.18;102254.52;105582;1253;72272;-55
2024/01/29 08:20:22;;;;;;;43.00;21.40;;;;;;;-0.18;95.12;102253.95;105565;1257;69208;-55
2024/01/29 08:22:51;;;;;;;43.90;20.90;;;;;;;-0.10;95.15;102258.88;105610;1257;69120;-52
2024/01/29 08:25:20;;;;;;;52.50;20.70;;;;;;;-0.03;95.06;102255.88;105671;1253;71771;-52
2024/01/29 08:27:48;;;;;;;50.60;21.30;;;;;;;0.05;94.97;102255.98;105686;1258;82046;-49
2024/01/29 08:30:17;;;;;;;47.60;19.00;;;;;;;0.12;94.87;102250.91;105499;1253;72985;-51
2024/01/29 08:32:45;;;;;;;38.90;18.30;;;;;;;0.20;94.87;102252.23;105514;1258;69206;-54
2024/01/29 08:35:14;;;;;;;33.90;16.70;;;;;;;0.28;94.72;102250.27;105579;1255;69170;-51
2024/01/29 08:37:42;;;;;;;31.80;16.40;;;;;;;0.36;94.57;102249.52;105629;1257;70936;-53
2024/01/29 08:40:11;;;;;;;32.60;16.50;;;;;;;0.44;94.54;102247.41;105457;1258;81917;-53
2024/01/29 08:42:39;;;;;;;36.00;16.80;;;;;;;0.54;94.53;102249.09;105623;1253;72052;-59
2024/01/29 08:45:08;;;;;;;29.30;15.90;;;;;;;0.62;94.31;102249.89;105479;1254;69133;-58
2024/01/29 08:47:36;;;;;;;33.30;15.70;;;;;;;0.70;94.28;102249.45;105505;1253;69507;-58
2024/01/29 08:50:05;;;;;;;33.10;16.00;;;;;;;0.78;94.23;102247.83;105697;1256;72639;-59
2024/01/29 08:52:35;;;;;;;32.90;16.20;;;;;;;0.87;94.17;102250.38;105517;1257;81980;-58
2024/01/29 08:55:03;;;;;;;26.80;14.80;;;;;;;0.98;94.27;102251.91;105442;1253;72674;-58
2024/01/29 08:57:31;;;;;;;29.70;14.80;;;;;;;1.11;94.09;102252.68;105612;1253;69200;-58
2024/01/29 09:00:00;;;;;;;25.50;14.40;;;;;;;1.25;93.91;102254.66;105606;1258;69120;-58
2024/01/29 09:02:31;;;;;;;29.40;15.20;;;;;;;1.40;93.62;102255.11;105662;1253;73798;-58
2024/01/29 09:05:00;;;;;;;34.90;18.90;;;;;;;1.56;93.62;102256.81;105711;1257;81489;-58
2024/01/29 09:07:28;;;;;;;60.40;29.90;;;;;;;1.72;93.47;102254.35;105691;1256;73134;-59
2024/01/29 09:09:57;;;;;;;80.60;39.50;;;;;;;1.91;93.44;102258.32;105488;1257;69177;-60
2024/01/29 09:12:25;;;;;;;84.00;44.30;;;;;;;2.10;93.46;102261.27;105459;1257;69208;-59
2024/01/29 09:14:53;;;;;;;100.50;49.20;;;;;;;2.30;93.39;102263.71;105522;1258;72160;-58
2024/01/29 09:17:21;;;;;;;85.40;42.10;;;;;;;2.49;92.94;102266.10;105496;1257;81410;-59
2024/01/29 09:19:51;;;;;;;60.40;31.90;;;;;;;2.66;92.87;102266.37;105449;1253;72070;-58
2024/01/29 09:22:20;;;;;;;44.40;27.80;;;;;;;2.81;92.54;102263.30;105569;1257;69123;-58
2024/01/29 09:24:48;;;;;;;44.10;25.30;;;;;;;2.99;92.33;102263.92;105619;1253;69211;-59
2024/01/29 09:27:16;;;;;;;31.50;18.00;;;;;;;3.19;92.15;102262.30;105510;1253;72015;-59
2024/01/29 09:29:44;;;;;;;31.80;16.20;;;;;;;3.35;91.51;102258.17;105683;1258;83330;-60
2024/01/29 09:32:13;;;;;;;27.80;14.90;;;;;;;3.52;91.36;102255.78;105498;1253;72091;-59
2024/01/29 09:34:41;;;;;;;26.10;14.80;;;;;;;3.70;91.19;102258.59;105881;1253;69106;-59
2024/01/29 09:37:09;;;;;;;46.20;27.70;;;;;;;3.89;91.13;102257.09;105525;1257;69121;-60
2024/01/29 09:39:38;;;;;;;46.40;26.50;;;;;;;4.09;90.71;102253.49;105511;1253;72398;-60
2024/01/29 09:42:06;;;;;;;41.70;24.60;;;;;;;4.26;90.18;102248.46;105763;1257;81878;-59
2024/01/29 09:44:39;;;;;;;66.50;24.20;;;;;;;4.43;89.96;102247.55;105512;1253;72188;-61
2024/01/29 09:47:08;;;;;;;30.00;17.10;;;;;;;4.63;89.83;102249.28;105376;1257;286174;-61
2024/01/29 09:49:39;;;;;;;25.40;15.30;;;;;;;4.84;89.48;102251.73;105630;1253;69108;-61
2024/01/29 09:52:14;;;;;;;24.70;14.70;;;;;;;4.99;88.79;102247.44;105591;1253;73253;-60
2024/01/29 09:54:45;;;;;;;28.50;16.30;;;;;;;5.10;88.19;102245.02;105578;1253;81955;-60
2024/01/29 09:57:14;;;;;;;38.20;22.00;;;;;;;5.25;88.21;102239.86;105555;1253;72525;-60
2024/01/29 09:59:43;;;;;;;39.20;23.50;;;;;;;5.49;88.34;102241.23;105540;1253;69133;-58
2024/01/29 10:02:12;;;;;;;35.30;21.70;;;;;;;5.73;88.09;102244.33;105666;1253;69082;-56
2024/01/29 10:04:41;;;;;;;27.80;16.90;;;;;;;5.94;87.39;102241.64;105641;1253;73554;-58
2024/01/29 10:07:10;;;;;;;29.50;16.30;;;;;;;6.09;86.75;102236.96;105500;1258;82095;-58
2024/01/29 10:09:39;;;;;;;25.40;15.70;;;;;;;6.24;86.22;102241.12;105576;1253;71616;-58
2024/01/29 10:12:07;;;;;;;27.10;16.20;;;;;;;6.36;85.68;102241.59;105454;1256;69129;-58
2024/01/29 10:14:37;;;;;;;28.80;16.00;;;;;;;6.55;85.75;102244.20;105606;1253;69323;-57
2024/01/29 10:17:05;;;;;;;27.60;16.10;;;;;;;6.73;85.10;102244.36;105648;1258;71944;-57
2024/01/29 10:19:37;;;;;;;72.00;31.60;;;;;;;6.94;84.90;102247.30;105611;1256;83768;-58
2024/01/29 10:22:13;;;;;;;24.40;15.30;;;;;;;7.17;84.55;102251.11;105615;1257;73119;-58
2024/01/29 10:24:41;;;;;;;33.90;17.70;;;;;;;7.31;84.00;102257.13;105576;1253;69034;-58
2024/01/29 10:27:10;;;;;;;32.10;19.40;;;;;;;7.51;83.96;102251.32;105637;1257;69165;-60
2024/01/29 10:29:48;;;;;;;23.00;14.30;;;;;;;7.70;83.12;102249.84;105533;1257;73471;-56
2024/01/29 10:32:16;;;;;;;28.60;16.80;;;;;;;7.89;83.03;102243.65;105597;1255;80822;-59
2024/01/29 10:34:45;;;;;;;26.50;17.70;;;;;;;8.07;82.29;102243.54;105602;1253;72618;-58
2024/01/29 10:37:15;;;;;;;28.50;16.20;;;;;;;8.21;82.08;102239.73;105578;1257;69089;-58
2024/01/29 10:39:44;;;;;;;28.30;17.70;;;;;;;8.40;81.79;102239.96;105681;1257;69204;-57
2024/01/29 10:42:27;;;;;;;27.60;15.80;;;;;;;8.60;80.99;102235.12;105498;1253;72068;-58
2024/01/29 10:45:00;;;;;;;26.70;15.80;;;;;;;8.69;80.10;102231.66;105764;1253;80555;-58
2024/01/29 10:47:33;;;;;;;24.10;14.80;;;;;;;8.75;79.92;102229.90;105657;1253;72905;-58
2024/01/29 10:50:01;;;;;;;22.10;14.40;;;;;;;8.86;79.44;102223.45;105567;1258;69187;-58
2024/01/29 10:52:30;;;;;;;23.50;14.70;;;;;;;8.95;79.29;102216.64;105553;1258;69149;-58
2024/01/29 10:54:59;;;;;;;25.30;13.40;;;;;;;9.10;78.69;102213.67;105512;1253;72680;-58
2024/01/29 10:57:28;;;;;;;24.90;14.70;;;;;;;9.24;78.27;102213.62;105566;1258;82859;-59
2024/01/29 10:59:57;;;;;;;24.80;15.80;;;;;;;9.41;77.94;102208.17;105515;1259;72873;-59
2024/01/29 11:02:25;;;;;;;19.80;13.30;;;;;;;9.60;77.74;102204.61;105450;1259;69192;-59
2024/01/29 11:04:54;;;;;;;23.00;14.90;;;;;;;9.79;77.21;102200.50;105487;1257;69088;-59
2024/01/29 11:07:25;;;;;;;26.80;17.00;;;;;;;9.99;77.02;102201.27;105409;1253;72233;-59
2024/01/29 11:10:04;;;;;;;22.10;14.60;;;;;;;10.23;76.50;102194.85;105487;1256;82625;-59